aviador You're here:

VOCB Decoded Metar

COIMBATORE in INDIA
Report Time2018-01-16 13:00:00
UTC Time2018-01-16 13:11:57
Flight Rules mvfr MVFR
Wind070° at 05 kt
W.Decomp.*RWY 05: 4.6 kt HW 1.9 kt RCW
W.Rank070° ranks 6
Current wind is below 070° avg. (6.1)
Visibility6000 m
Phenomena:N/A
Clouds:Scattered 080 Hf
Expected CloudBase > 6,000 ft AGL from Temp-Dew spread
CeilingNone
Temp29°C (ISA +17)
Dew Point14°C (40% RH)
Heat Index28.6°C
AAT28.5°C
QNH1011 hPa
Density Alt3,494 ft
Elevation1,309 ft
Report Wrong Elevation
Raw Report
METAR VOCB 161300Z 07005KT 6000 SCT080 29/14 Q1011 BECMG 5000 HZ=

Extra information for VOCB:More info

Metar Taf Metar & Taf Last 4 Metars F.Rules Stats Wind Profile Meteogram Temp Stats Airport Information Weather charts Add Link Nearby VenuesMetar ALERT Operation Metar Decoded Social comments